aviador You're here:

SCCH Decoded Metar

CHILLAN in CHILE
Report Time2018-01-17 05:00:00
UTC Time2018-01-17 05:14:39
Flight Rules vfr VFR
Wind200° at 11 kt
W.Decomp.*RWY 22: 10.0 kt HW 4.6 kt LCW
W.Rank200° ranks 3
Current wind is above 200° avg. (7.0)
Visibility9999 m
Phenomena:N/A
Clouds:N/A
Expected CloudBase > 2,800 ft AGL from Temp-Dew spread
CeilingNone
Temp17°C (ISA +3)
Dew Point10°C (64% RH)
AAT13.1°C
QNH1018 hPa
Density Alt833 ft
Elevation486 ft
Report Wrong Elevation
Raw Report
SCCH 170500Z AUTO 20011KT 9999 NCD 17/10 Q1018=

Extra information for SCCH:More info

Metar Taf Metar & Taf Last 4 Metars F.Rules Stats Wind Profile Meteogram Temp Stats Airport Information Weather charts Add Link Nearby VenuesMetar ALERT Operation Metar Decoded Social comments